ULLI/LED METAR and TAF weather

Enter ICAO airport designator
Station Type Date Time Source
ULLI METAR 2021/03/03 21:00 UTC NOAA

ULLI 032100Z 29009MPS 9999 SCT007 BKN018CB OVC033 01/M00 Q1001 R88/610345 TEMPO 1500 SHSNRA BKN004 BKN016CB RMK OBST OBSC


Station Type Date Time Source
ULLI Decoded METAR 2021/03/03 21:00 UTC NOAA

St. Peterburg, Russia (ULLI) 59-58N 030-18E 6M
Mar 03, 2021 - 04:00 PM EST / 2021.03.03 2100 UTC
Wind: from the WNW (290 degrees) at 20 MPH (17 KT):0
Visibility: greater than 7 mile(s):0
Sky conditions: overcast
Weather: Cumulonimbus clouds observed
Temperature: 33 F (1 C)
Windchill: 21 F (-6 C):1
Dew Point: 32 F (0 C)
Relative Humidity: 93%
Pressure (altimeter): 29.56 in. Hg (1001 hPa)
ob: ULLI 032100Z 29009MPS 9999 SCT007 BKN018CB OVC033 01/M00 Q1001 R88/610345 TEMPO 1500 SHSNRA BKN004 BKN016CB RMK OBST OBSC
cycle: 21

Station Type Date Time Source
ULLI TAF 2021/03/03 21:21 UTC NOAA

TAF TAF ULLI 031958Z 0321/0421 28006G13MPS 6000 -SNRA BKN010 OVC017
TEMPO 0321/0324 1500 SHSNRA BKN006 BKN016CB
TEMPO 0400/0409 30005G10MPS -SHSN BKN016CB
FM040900 31005G11MPS 6000 BKN016
TEMPO 0409/0421 -SHSN BKN016CB

Example: see airport list